createdAt,value
2017-12-31T00:00:48.731Z,1.29
2017-12-31T00:03:16.529Z,1.32
2017-12-31T00:05:44.258Z,1.34
2017-12-31T00:08:12.031Z,1.34
2017-12-31T00:10:39.972Z,1.34
2017-12-31T00:13:07.908Z,1.35
2017-12-31T00:15:35.663Z,1.39
2017-12-31T00:18:04.254Z,1.43
2017-12-31T00:20:32.324Z,1.47
2017-12-31T00:23:00.185Z,1.47
2017-12-31T00:25:27.933Z,1.47
2017-12-31T00:27:55.733Z,1.51
2017-12-31T00:30:23.715Z,1.46
2017-12-31T00:32:51.659Z,1.51
2017-12-31T00:35:19.368Z,1.41
2017-12-31T00:37:47.204Z,1.45
2017-12-31T00:40:14.899Z,1.45
2017-12-31T00:42:42.704Z,1.41
2017-12-31T00:45:10.893Z,1.46
2017-12-31T00:47:38.632Z,1.41
2017-12-31T00:50:06.629Z,1.49
2017-12-31T00:52:34.560Z,1.52
2017-12-31T00:55:02.469Z,1.52
2017-12-31T00:57:30.178Z,1.54
2017-12-31T00:59:57.893Z,1.47
2017-12-31T01:02:25.647Z,1.45
2017-12-31T01:04:54.619Z,1.48
2017-12-31T01:07:22.621Z,1.48
2017-12-31T01:09:51.237Z,1.48
2017-12-31T01:12:19.083Z,1.49
2017-12-31T01:14:46.764Z,1.54
2017-12-31T01:17:14.599Z,1.52
2017-12-31T01:19:42.347Z,1.56
2017-12-31T01:22:10.112Z,1.53
2017-12-31T01:24:38.091Z,1.45
2017-12-31T01:27:05.859Z,1.48
2017-12-31T01:29:33.731Z,1.42
2017-12-31T01:32:01.650Z,1.39
2017-12-31T01:34:29.671Z,1.40
2017-12-31T01:36:57.414Z,1.39
2017-12-31T01:39:25.129Z,1.45
2017-12-31T01:41:52.794Z,1.46
2017-12-31T01:44:20.576Z,1.46
2017-12-31T01:46:48.270Z,1.49
2017-12-31T01:49:16.261Z,1.51
2017-12-31T01:51:44.034Z,1.53
2017-12-31T01:54:12.113Z,1.50
2017-12-31T01:56:39.779Z,1.52
2017-12-31T01:59:07.496Z,1.52
2017-12-31T02:01:36.107Z,1.47
2017-12-31T02:04:03.836Z,1.48
2017-12-31T02:06:31.589Z,1.57
2017-12-31T02:08:59.281Z,1.52
2017-12-31T02:11:27.023Z,1.65
2017-12-31T02:13:54.750Z,1.50
2017-12-31T02:16:22.469Z,1.50
2017-12-31T02:18:50.236Z,1.49
2017-12-31T02:21:17.989Z,1.47
2017-12-31T02:23:46.001Z,1.46
2017-12-31T02:26:13.753Z,1.50
2017-12-31T02:28:41.485Z,1.50
2017-12-31T02:31:09.381Z,1.50
2017-12-31T02:33:37.250Z,1.49
2017-12-31T02:36:05.472Z,1.52
2017-12-31T02:38:33.243Z,1.50
2017-12-31T02:41:01.017Z,1.48
2017-12-31T02:43:28.703Z,1.52
2017-12-31T02:45:56.419Z,1.51
2017-12-31T02:48:24.432Z,1.52
2017-12-31T02:50:52.226Z,1.49
2017-12-31T02:53:20.294Z,1.54
2017-12-31T02:55:47.970Z,1.54
2017-12-31T02:58:15.655Z,1.53
2017-12-31T03:00:43.662Z,1.47
2017-12-31T03:03:11.519Z,1.43
2017-12-31T03:05:39.295Z,1.49
2017-12-31T03:08:07.045Z,1.52
2017-12-31T03:10:34.955Z,1.52
2017-12-31T03:13:02.700Z,1.50
2017-12-31T03:15:30.378Z,1.53
2017-12-31T03:17:58.111Z,1.51
2017-12-31T03:20:26.220Z,1.51
2017-12-31T03:22:53.996Z,1.51
2017-12-31T03:25:21.751Z,1.55
2017-12-31T03:27:49.466Z,1.53
2017-12-31T03:30:17.146Z,1.53
2017-12-31T03:32:44.921Z,1.55
2017-12-31T03:35:13.092Z,1.53
2017-12-31T03:37:41.072Z,1.49
2017-12-31T03:40:08.953Z,1.60
2017-12-31T03:42:36.716Z,1.59
2017-12-31T03:45:04.398Z,1.56
2017-12-31T03:47:32.260Z,1.54
2017-12-31T03:50:00.212Z,1.54
2017-12-31T03:52:28.286Z,1.53
2017-12-31T03:54:56.462Z,1.66
2017-12-31T03:57:24.142Z,1.62
2017-12-31T03:59:51.896Z,1.55
2017-12-31T04:02:19.678Z,1.61
2017-12-31T04:04:48.236Z,1.58
2017-12-31T04:07:16.987Z,1.61
2017-12-31T04:09:44.700Z,1.62
2017-12-31T04:12:12.551Z,1.61
2017-12-31T04:14:40.228Z,1.54
2017-12-31T04:17:07.977Z,1.61
2017-12-31T04:19:35.816Z,1.57
2017-12-31T04:22:03.744Z,1.61
2017-12-31T04:24:31.517Z,1.57
2017-12-31T04:26:59.327Z,1.49
2017-12-31T04:29:27.434Z,1.53
2017-12-31T04:31:55.389Z,1.59
2017-12-31T04:34:23.458Z,1.52
2017-12-31T04:36:51.203Z,1.56
2017-12-31T04:39:19.080Z,1.55
2017-12-31T04:41:46.958Z,1.57
2017-12-31T04:44:15.032Z,1.52
2017-12-31T04:46:42.744Z,1.59
2017-12-31T04:49:10.584Z,1.59
2017-12-31T04:51:38.246Z,1.66
2017-12-31T04:54:05.962Z,1.67
2017-12-31T04:56:33.683Z,1.63
2017-12-31T04:59:01.511Z,1.63
2017-12-31T05:01:29.488Z,1.53
2017-12-31T05:03:57.376Z,1.61
2017-12-31T05:06:26.201Z,1.55
2017-12-31T05:08:54.238Z,1.58
2017-12-31T05:11:21.986Z,1.65
2017-12-31T05:13:50.359Z,1.64
2017-12-31T05:16:18.194Z,1.64
2017-12-31T05:18:46.105Z,1.67
2017-12-31T05:21:13.839Z,1.68
2017-12-31T05:23:41.611Z,1.68
2017-12-31T05:26:09.662Z,1.69
2017-12-31T05:28:37.385Z,1.69
2017-12-31T05:31:05.396Z,1.63
2017-12-31T05:33:33.300Z,1.72
2017-12-31T05:36:01.063Z,1.73
2017-12-31T05:38:28.860Z,1.81
2017-12-31T05:40:56.980Z,1.71
2017-12-31T05:43:24.898Z,1.75
2017-12-31T05:45:52.717Z,1.76
2017-12-31T05:48:20.458Z,1.82
2017-12-31T05:50:48.457Z,1.91
2017-12-31T05:53:16.408Z,1.80
2017-12-31T05:55:44.116Z,1.84
2017-12-31T05:58:11.848Z,1.84
2017-12-31T06:00:39.721Z,1.82
2017-12-31T06:03:07.630Z,1.82
2017-12-31T06:05:35.340Z,1.81
2017-12-31T06:08:03.023Z,1.78
2017-12-31T06:10:30.878Z,1.93
2017-12-31T06:12:58.573Z,1.83
2017-12-31T06:15:26.278Z,1.83
2017-12-31T06:17:54.041Z,1.79
2017-12-31T06:20:21.742Z,1.74
2017-12-31T06:22:49.564Z,1.73
2017-12-31T06:25:17.266Z,1.94
2017-12-31T06:27:44.951Z,1.99
2017-12-31T06:30:12.726Z,1.86
2017-12-31T06:32:40.427Z,1.85
2017-12-31T06:35:08.252Z,1.83
2017-12-31T06:37:35.960Z,1.86
2017-12-31T06:40:03.759Z,1.85
2017-12-31T06:42:31.548Z,1.90
2017-12-31T06:44:59.329Z,1.98
2017-12-31T06:47:27.015Z,2.11
2017-12-31T06:49:54.752Z,2.02
2017-12-31T06:52:23.550Z,2.07
2017-12-31T06:54:51.331Z,2.05
2017-12-31T06:57:19.112Z,2.09
2017-12-31T06:59:52.630Z,2.37
2017-12-31T07:02:20.371Z,2.07
2017-12-31T07:04:48.212Z,1.98
2017-12-31T07:07:15.952Z,1.99
2017-12-31T07:09:43.827Z,1.93
2017-12-31T07:12:11.642Z,1.96
2017-12-31T07:14:39.734Z,1.95
2017-12-31T07:17:07.483Z,1.98
2017-12-31T07:19:35.298Z,2.01
2017-12-31T07:22:03.026Z,2.08
2017-12-31T07:24:30.829Z,2.16
2017-12-31T07:26:58.532Z,2.12
2017-12-31T07:29:26.585Z,2.22
2017-12-31T07:31:54.599Z,2.23
2017-12-31T07:34:24.195Z,2.17
2017-12-31T07:36:51.998Z,2.14
2017-12-31T07:39:19.720Z,2.22
2017-12-31T07:41:47.502Z,2.25
2017-12-31T07:44:15.273Z,2.23
2017-12-31T07:46:43.319Z,2.29
2017-12-31T07:49:11.151Z,2.34
2017-12-31T07:51:38.853Z,2.39
2017-12-31T07:54:06.718Z,2.42
2017-12-31T07:56:34.430Z,2.44
2017-12-31T07:59:02.184Z,2.46
2017-12-31T08:01:30.016Z,2.57
2017-12-31T08:03:57.795Z,2.63
2017-12-31T08:06:25.578Z,2.73
2017-12-31T08:08:53.449Z,2.79
2017-12-31T08:11:21.385Z,2.63
2017-12-31T08:13:49.180Z,2.67
2017-12-31T08:16:17.094Z,2.77
2017-12-31T08:18:44.824Z,2.83
2017-12-31T08:21:12.592Z,2.86
2017-12-31T08:23:40.296Z,2.89
2017-12-31T08:26:08.063Z,2.95
2017-12-31T08:28:35.873Z,2.88
2017-12-31T08:31:03.658Z,2.99
2017-12-31T08:33:31.461Z,3.03
2017-12-31T08:35:59.164Z,3.14
2017-12-31T08:38:26.998Z,3.24
2017-12-31T08:40:54.898Z,3.19
2017-12-31T08:43:22.826Z,3.38
2017-12-31T08:45:51.602Z,3.52
2017-12-31T08:48:19.437Z,3.52
2017-12-31T08:50:47.175Z,3.59
2017-12-31T08:53:14.958Z,3.68
2017-12-31T08:55:42.883Z,3.75
2017-12-31T08:58:11.287Z,3.73
2017-12-31T09:00:39.017Z,4.18
2017-12-31T09:03:07.029Z,4.17
2017-12-31T09:05:34.853Z,4.55
2017-12-31T09:08:02.577Z,4.59
2017-12-31T09:10:30.438Z,4.75
2017-12-31T09:12:58.392Z,4.69
2017-12-31T09:15:26.110Z,4.81
2017-12-31T09:17:53.894Z,4.84
2017-12-31T09:20:21.718Z,5.08
2017-12-31T09:22:49.635Z,5.43
2017-12-31T09:25:17.581Z,5.74
2017-12-31T09:27:45.363Z,6.02
2017-12-31T09:30:13.113Z,6.65
2017-12-31T09:32:41.089Z,7.14
2017-12-31T09:35:08.835Z,7.58
2017-12-31T09:37:36.663Z,7.31
2017-12-31T09:40:04.383Z,7.37
2017-12-31T09:42:32.301Z,7.01
2017-12-31T09:45:00.059Z,6.91
2017-12-31T09:47:27.792Z,7.79
2017-12-31T09:49:56.228Z,8.71
2017-12-31T09:52:24.832Z,8.93
2017-12-31T09:54:53.456Z,9.08
2017-12-31T09:57:21.510Z,9.44
2017-12-31T09:59:49.399Z,9.89
2017-12-31T10:02:17.379Z,10.62
2017-12-31T10:04:45.210Z,10.75
2017-12-31T10:07:13.021Z,11.09
2017-12-31T10:09:41.203Z,11.23
2017-12-31T10:12:09.113Z,10.32
2017-12-31T10:14:37.917Z,9.46
2017-12-31T10:17:05.683Z,9.35
2017-12-31T10:19:33.667Z,8.77
2017-12-31T10:22:01.642Z,8.79
2017-12-31T10:24:29.595Z,8.64
2017-12-31T10:26:57.712Z,8.73
2017-12-31T10:29:25.520Z,9.27
2017-12-31T10:31:53.827Z,10.40
2017-12-31T10:34:21.572Z,10.81
2017-12-31T10:36:49.462Z,11.11
2017-12-31T10:39:17.356Z,11.34
2017-12-31T10:41:45.676Z,11.33
2017-12-31T10:44:13.578Z,11.66
2017-12-31T10:46:41.431Z,10.63
2017-12-31T10:49:09.252Z,11.48
2017-12-31T10:51:37.022Z,10.40
2017-12-31T10:54:04.852Z,11.23
2017-12-31T10:56:32.628Z,11.27
2017-12-31T10:59:00.358Z,10.67
2017-12-31T11:01:28.091Z,11.32
2017-12-31T11:03:55.980Z,11.68
2017-12-31T11:06:23.740Z,11.42
2017-12-31T11:08:51.685Z,11.04
2017-12-31T11:11:19.390Z,11.66
2017-12-31T11:13:47.317Z,11.22
2017-12-31T11:16:15.175Z,11.80
2017-12-31T11:18:42.936Z,12.03
2017-12-31T11:21:10.694Z,11.92
2017-12-31T11:23:38.510Z,12.12
2017-12-31T11:26:06.220Z,12.17
2017-12-31T11:28:34.254Z,12.09
2017-12-31T11:31:02.850Z,12.19
2017-12-31T11:33:30.705Z,11.71
2017-12-31T11:35:58.483Z,10.96
2017-12-31T11:38:26.177Z,11.89
2017-12-31T11:40:53.920Z,11.52
2017-12-31T11:43:21.768Z,10.34
2017-12-31T11:45:49.546Z,11.14
2017-12-31T11:48:17.329Z,11.01
2017-12-31T11:50:45.171Z,11.54
2017-12-31T11:53:13.030Z,11.74
2017-12-31T11:55:40.810Z,11.78
2017-12-31T11:58:08.673Z,11.97
2017-12-31T12:00:36.458Z,11.78
2017-12-31T12:03:04.313Z,11.99
2017-12-31T12:05:32.016Z,12.56
2017-12-31T12:07:59.781Z,12.08
2017-12-31T12:10:28.302Z,12.28
2017-12-31T12:12:56.162Z,11.76
2017-12-31T12:15:24.718Z,11.99
2017-12-31T12:17:52.545Z,11.63
2017-12-31T12:20:20.387Z,11.88
2017-12-31T12:22:48.353Z,12.29
2017-12-31T12:25:16.394Z,12.14
2017-12-31T12:27:44.504Z,11.99
2017-12-31T12:30:13.482Z,11.89
2017-12-31T12:32:41.488Z,12.33
2017-12-31T12:35:09.329Z,12.50
2017-12-31T12:37:37.080Z,12.03
2017-12-31T12:40:04.901Z,12.44
2017-12-31T12:42:32.647Z,12.39
2017-12-31T12:45:00.474Z,12.20
2017-12-31T12:47:28.330Z,12.33
2017-12-31T12:49:56.235Z,11.72
2017-12-31T12:52:24.300Z,11.44
2017-12-31T12:54:52.063Z,11.46
2017-12-31T12:57:19.846Z,11.56
2017-12-31T12:59:47.624Z,11.66
2017-12-31T13:02:15.326Z,11.42
2017-12-31T13:04:43.120Z,11.79
2017-12-31T13:07:10.944Z,11.26
2017-12-31T13:09:38.734Z,11.28
2017-12-31T13:12:06.491Z,10.94
2017-12-31T13:14:34.188Z,10.57
2017-12-31T13:17:01.906Z,10.68
2017-12-31T13:19:29.649Z,10.65
2017-12-31T13:21:57.363Z,10.23
2017-12-31T13:24:25.120Z,10.07
2017-12-31T13:26:52.840Z,10.03
2017-12-31T13:29:20.545Z,9.72
2017-12-31T13:31:48.320Z,9.52
2017-12-31T13:34:16.006Z,9.51
2017-12-31T13:36:43.774Z,9.26
2017-12-31T13:39:11.513Z,9.16
2017-12-31T13:41:39.232Z,9.16
2017-12-31T13:44:07.036Z,8.83
2017-12-31T13:46:35.325Z,8.89
2017-12-31T13:49:04.222Z,8.79
2017-12-31T13:51:32.246Z,8.84
2017-12-31T13:54:00.001Z,8.62
2017-12-31T13:56:27.764Z,8.29
2017-12-31T13:58:55.745Z,8.25
2017-12-31T14:01:23.457Z,7.77
2017-12-31T14:03:51.225Z,7.90
2017-12-31T14:06:19.022Z,8.29
2017-12-31T14:08:46.770Z,8.28
2017-12-31T14:11:14.494Z,8.04
2017-12-31T14:13:42.215Z,7.25
2017-12-31T14:16:09.999Z,7.33
2017-12-31T14:18:37.708Z,7.21
2017-12-31T14:21:05.571Z,6.95
2017-12-31T14:23:33.319Z,6.40
2017-12-31T14:26:01.021Z,6.07
2017-12-31T14:28:28.814Z,6.30
2017-12-31T14:30:56.569Z,6.35
2017-12-31T14:33:24.351Z,6.38
2017-12-31T14:35:52.098Z,6.43
2017-12-31T14:38:19.788Z,6.07
2017-12-31T14:40:47.566Z,6.00
2017-12-31T14:43:15.356Z,5.98
2017-12-31T14:45:43.070Z,5.75
2017-12-31T14:48:10.874Z,5.77
2017-12-31T14:50:38.675Z,5.81
2017-12-31T14:53:06.457Z,5.70
2017-12-31T14:55:34.237Z,5.14
2017-12-31T14:58:02.190Z,5.22
2017-12-31T15:00:30.086Z,5.07
2017-12-31T15:02:57.948Z,5.02
2017-12-31T15:05:25.703Z,5.02
2017-12-31T15:07:53.474Z,4.89
2017-12-31T15:10:21.180Z,4.72
2017-12-31T15:12:48.976Z,4.70
2017-12-31T15:15:16.936Z,4.61
2017-12-31T15:17:44.768Z,4.54
2017-12-31T15:20:12.600Z,4.52
2017-12-31T15:22:40.310Z,4.25
2017-12-31T15:25:08.077Z,4.14
2017-12-31T15:27:35.816Z,4.08
2017-12-31T15:30:04.017Z,4.07
2017-12-31T15:32:31.771Z,4.32
2017-12-31T15:35:00.025Z,4.06
2017-12-31T15:37:27.802Z,4.05
2017-12-31T15:39:55.627Z,3.60
2017-12-31T15:42:24.199Z,3.53
2017-12-31T15:44:51.952Z,3.67
2017-12-31T15:47:19.747Z,3.77
2017-12-31T15:49:47.559Z,3.79
2017-12-31T15:52:15.315Z,3.77
2017-12-31T15:54:43.135Z,3.75
2017-12-31T15:57:10.928Z,3.68
2017-12-31T15:59:39.030Z,3.69
2017-12-31T16:02:07.022Z,3.64
2017-12-31T16:04:34.783Z,3.58
2017-12-31T16:07:02.874Z,3.41
2017-12-31T16:09:30.748Z,3.50
2017-12-31T16:11:58.546Z,3.32
2017-12-31T16:14:26.348Z,3.20
2017-12-31T16:16:54.154Z,3.14
2017-12-31T16:19:22.412Z,2.94
2017-12-31T16:21:50.252Z,2.93
2017-12-31T16:24:18.071Z,2.93
2017-12-31T16:26:45.880Z,3.09
2017-12-31T16:29:13.613Z,2.96
2017-12-31T16:31:41.337Z,3.08
2017-12-31T16:34:09.169Z,2.91
2017-12-31T16:36:37.092Z,3.09
2017-12-31T16:39:05.009Z,3.17
2017-12-31T16:41:32.824Z,3.06
2017-12-31T16:44:00.738Z,2.93
2017-12-31T16:46:28.466Z,3.01
2017-12-31T16:48:56.322Z,2.84
2017-12-31T16:51:24.103Z,2.71
2017-12-31T16:53:51.877Z,2.70
2017-12-31T16:56:19.577Z,2.70
2017-12-31T16:58:47.348Z,2.58
2017-12-31T17:01:15.071Z,2.61
2017-12-31T17:03:42.825Z,2.73
2017-12-31T17:06:10.653Z,2.70
2017-12-31T17:08:39.474Z,2.66
2017-12-31T17:11:07.293Z,2.74
2017-12-31T17:13:34.988Z,2.69
2017-12-31T17:16:02.780Z,2.69
2017-12-31T17:18:30.515Z,2.58
2017-12-31T17:20:58.220Z,2.66
2017-12-31T17:23:26.002Z,2.77
2017-12-31T17:25:53.821Z,2.73
2017-12-31T17:28:22.630Z,2.75
2017-12-31T17:30:50.434Z,2.73
2017-12-31T17:33:18.205Z,2.76
2017-12-31T17:35:45.927Z,2.74
2017-12-31T17:38:13.772Z,2.81
2017-12-31T17:40:41.519Z,2.78
2017-12-31T17:43:09.246Z,2.72
2017-12-31T17:45:37.131Z,2.63
2017-12-31T17:48:04.897Z,2.68
2017-12-31T17:50:32.725Z,2.66
2017-12-31T17:53:00.422Z,2.77
2017-12-31T17:55:28.126Z,2.68
2017-12-31T17:57:55.915Z,2.60
2017-12-31T18:00:23.733Z,2.47
2017-12-31T18:02:51.451Z,2.49
2017-12-31T18:05:19.237Z,2.53
2017-12-31T18:07:46.929Z,2.62
2017-12-31T18:10:15.653Z,2.53
2017-12-31T18:12:43.431Z,2.66
2017-12-31T18:15:11.172Z,2.65
2017-12-31T18:17:38.860Z,2.66
2017-12-31T18:20:07.532Z,2.64
2017-12-31T18:22:35.290Z,2.74
2017-12-31T18:25:02.991Z,2.75
2017-12-31T18:27:30.910Z,2.70
2017-12-31T18:29:59.152Z,2.71
2017-12-31T18:32:26.898Z,2.69
2017-12-31T18:34:54.679Z,2.68
2017-12-31T18:37:22.584Z,2.68
2017-12-31T18:39:50.338Z,2.75
2017-12-31T18:42:18.151Z,2.81
2017-12-31T18:44:46.101Z,2.87
2017-12-31T18:47:13.957Z,2.91
2017-12-31T18:49:51.007Z,2.78
2017-12-31T18:52:19.619Z,2.53
2017-12-31T18:54:48.905Z,2.44
2017-12-31T18:57:17.327Z,2.58
2017-12-31T18:59:47.215Z,2.71
2017-12-31T19:02:21.391Z,2.71
2017-12-31T19:04:50.926Z,2.73
2017-12-31T19:07:20.189Z,2.73
2017-12-31T19:09:49.394Z,2.68
2017-12-31T19:12:18.604Z,2.60
2017-12-31T19:14:47.041Z,2.56
2017-12-31T19:17:15.376Z,2.56
2017-12-31T19:19:43.212Z,2.58
2017-12-31T19:22:11.850Z,2.63
2017-12-31T19:24:40.206Z,2.64
2017-12-31T19:27:07.981Z,2.70
2017-12-31T19:29:35.829Z,2.71
2017-12-31T19:32:03.566Z,2.70
2017-12-31T19:34:32.258Z,2.76
2017-12-31T19:37:00.698Z,2.76
2017-12-31T19:39:28.653Z,2.76
2017-12-31T19:41:56.966Z,2.83
2017-12-31T19:44:25.750Z,2.81
2017-12-31T19:46:53.764Z,2.84
2017-12-31T19:49:21.989Z,2.86
2017-12-31T19:51:49.766Z,2.85
2017-12-31T19:54:17.961Z,2.86
2017-12-31T19:56:45.697Z,2.78
2017-12-31T19:59:13.378Z,2.62
2017-12-31T20:01:41.217Z,2.57
2017-12-31T20:04:08.966Z,2.63
2017-12-31T20:06:36.740Z,2.59
2017-12-31T20:09:04.623Z,2.61
2017-12-31T20:11:32.382Z,2.59
2017-12-31T20:14:00.145Z,2.64
2017-12-31T20:16:27.898Z,2.54
2017-12-31T20:18:56.076Z,2.44
2017-12-31T20:21:23.796Z,2.48
2017-12-31T20:23:51.604Z,2.47
2017-12-31T20:26:19.372Z,2.47
2017-12-31T20:28:47.063Z,2.59
2017-12-31T20:31:14.820Z,2.62
2017-12-31T20:33:42.551Z,2.64
2017-12-31T20:36:10.339Z,2.62
2017-12-31T20:38:38.083Z,2.59
2017-12-31T20:41:05.846Z,2.63
2017-12-31T20:43:33.597Z,2.58
2017-12-31T20:46:01.430Z,2.58
2017-12-31T20:48:29.157Z,2.58
2017-12-31T20:50:56.947Z,2.60
2017-12-31T20:53:24.704Z,2.66
2017-12-31T20:55:52.469Z,2.67
2017-12-31T20:58:20.300Z,2.65
2017-12-31T21:00:48.129Z,2.62
2017-12-31T21:03:15.981Z,2.64
2017-12-31T21:05:46.991Z,2.67
2017-12-31T21:08:15.464Z,2.68
2017-12-31T21:10:43.342Z,2.66
2017-12-31T21:13:11.037Z,2.63
2017-12-31T21:15:42.450Z,2.57
2017-12-31T21:18:10.219Z,2.61
2017-12-31T21:20:37.938Z,2.59
2017-12-31T21:23:05.637Z,2.58
2017-12-31T21:25:33.373Z,2.55
2017-12-31T21:28:01.191Z,2.41
2017-12-31T21:30:29.005Z,2.51
2017-12-31T21:32:56.887Z,2.53
2017-12-31T21:35:24.567Z,2.38
2017-12-31T21:37:52.350Z,2.40
2017-12-31T21:40:20.044Z,2.48
2017-12-31T21:42:47.762Z,2.40
2017-12-31T21:45:15.535Z,2.43
2017-12-31T21:47:43.335Z,2.44
2017-12-31T21:50:11.068Z,2.51
2017-12-31T21:52:39.009Z,2.51
2017-12-31T21:55:06.753Z,2.59
2017-12-31T21:57:34.527Z,2.60
2017-12-31T22:00:02.261Z,2.56
2017-12-31T22:02:29.986Z,2.54
2017-12-31T22:04:57.757Z,2.58
2017-12-31T22:07:25.530Z,2.53
2017-12-31T22:09:53.211Z,2.52
2017-12-31T22:12:20.955Z,2.51
2017-12-31T22:14:48.619Z,2.44
2017-12-31T22:17:16.362Z,2.48
2017-12-31T22:19:44.113Z,2.46
2017-12-31T22:22:11.886Z,2.41
2017-12-31T22:24:39.605Z,2.42
2017-12-31T22:27:07.358Z,2.42
2017-12-31T22:29:35.144Z,2.35
2017-12-31T22:32:02.940Z,2.39
2017-12-31T22:34:30.678Z,2.37
2017-12-31T22:36:58.444Z,2.41
2017-12-31T22:39:26.233Z,2.49
2017-12-31T22:42:00.882Z,2.39
2017-12-31T22:44:28.655Z,2.47
2017-12-31T22:46:56.392Z,2.48
2017-12-31T22:49:24.156Z,2.45
2017-12-31T22:51:51.837Z,2.33
2017-12-31T22:54:19.575Z,2.42
2017-12-31T22:56:47.246Z,2.46
2017-12-31T22:59:14.980Z,2.40
2017-12-31T23:01:42.657Z,2.41
2017-12-31T23:04:10.393Z,2.44
2017-12-31T23:06:38.132Z,2.39
2017-12-31T23:09:05.870Z,2.34
2017-12-31T23:11:33.805Z,2.40
2017-12-31T23:14:01.650Z,2.42
2017-12-31T23:16:29.346Z,2.39
2017-12-31T23:18:57.062Z,2.36
2017-12-31T23:21:24.852Z,2.38
2017-12-31T23:23:54.017Z,2.32
2017-12-31T23:26:21.978Z,2.34
2017-12-31T23:28:50.482Z,2.37
2017-12-31T23:31:18.938Z,2.32
2017-12-31T23:33:46.995Z,2.37
2017-12-31T23:36:15.123Z,2.24
2017-12-31T23:38:43.238Z,2.25
2017-12-31T23:41:11.168Z,2.17
2017-12-31T23:43:38.980Z,2.26
2017-12-31T23:46:06.718Z,2.23
2017-12-31T23:48:34.461Z,2.23
2017-12-31T23:51:02.215Z,2.26
2017-12-31T23:53:29.960Z,2.29
2017-12-31T23:55:57.727Z,2.32
2017-12-31T23:58:25.501Z,2.35
